Cubuk, Turkey
Current Conditions -  °F | °C
As of 11:50 AM on Saturday 01 Nov 2014 (Local Time) from LTAC Reporting Station
Broken Clouds Broken Clouds  
Wind Chill: 43°   Ceiling: 9000
Heat Index: 48°   Visibility: 6mi
Dew Point: 37°   Wind: 12mph
Humidity: 66%   Direction: 290°WNW
Pressure: 30.06"   Gusts: NA
Location:  40.98°N, 32.08°E
Report Text: LTAC 010850Z 29010KT 9999 SCT035 BKN090 09/03 Q1018 NOSIG
Loading
Personal Weather Stations






























Interactive Weather Map
Tropical Storm Tracking
New forecast layout! Learn more

10-Day Weather Forecast

Advertisements
Track Severe Weather on mobile